ΕΜΥ, Εθνική Μετεωρολογική Υπηρεσία - Δελτία Καιρού, Προγνώσεις

ΑΕΡΟΝΑΥΤΙΛΙΑ

GREEK AIRPORTS CODES

LGBL 190820Z 10009KT 9999 FEW035 19/10 Q1010=

EUROPEAN AIRPORTS CODES

LFPO 190830Z 27012KT 9999 BKN019 BKN038 10/06 Q1019 NOSIG=